createdAt,value
2022-12-13T00:00:34.515Z,7.07
2022-12-13T00:05:59.168Z,6.85
2022-12-13T00:11:03.879Z,7.97
2022-12-13T00:16:11.131Z,7.72
2022-12-13T00:21:19.548Z,7.65
2022-12-13T00:26:25.654Z,7.40
2022-12-13T00:36:59.178Z,7.68
2022-12-13T00:42:02.985Z,7.85
2022-12-13T00:47:06.599Z,7.20
2022-12-13T00:52:11.537Z,6.93
2022-12-13T00:57:15.207Z,6.93
2022-12-13T01:02:18.545Z,7.25
2022-12-13T01:07:23.264Z,6.55
2022-12-13T01:12:26.614Z,7.13
2022-12-13T01:17:30.747Z,8.23
2022-12-13T01:22:35.446Z,8.10
2022-12-13T01:27:39.027Z,7.63
2022-12-13T01:32:42.371Z,6.82
2022-12-13T01:37:47.088Z,6.72
2022-12-13T01:42:50.740Z,7.50
2022-12-13T01:47:57.182Z,7.35
2022-12-13T01:53:04.640Z,7.00
2022-12-13T01:58:08.031Z,6.90
2022-12-13T02:03:21.586Z,7.40
2022-12-13T02:08:27.269Z,7.10
2022-12-13T02:13:30.702Z,5.97
2022-12-13T02:18:48.263Z,6.47
2022-12-13T02:24:17.240Z,6.95
2022-12-13T02:29:47.156Z,6.65
2022-12-13T02:34:58.608Z,6.78
2022-12-13T02:40:08.323Z,6.20
2022-12-13T02:45:20.659Z,5.82
2022-12-13T02:50:27.208Z,6.57
2022-12-13T02:55:32.508Z,6.80
2022-12-13T03:00:45.686Z,6.40
2022-12-13T03:06:16.055Z,5.88
2022-12-13T03:11:21.422Z,5.93
2022-12-13T03:16:30.169Z,5.90
2022-12-13T03:21:47.039Z,5.80
2022-12-13T03:26:52.005Z,5.80
2022-12-13T03:31:55.835Z,5.80
2022-12-13T03:37:00.963Z,5.97
2022-12-13T03:42:04.477Z,5.85
2022-12-13T03:47:08.021Z,5.65
2022-12-13T03:52:12.695Z,4.78
2022-12-13T03:57:16.341Z,5.80
2022-12-13T04:02:31.346Z,5.65
2022-12-13T04:07:36.556Z,5.80
2022-12-13T04:13:05.832Z,6.25
2022-12-13T04:18:09.254Z,6.63
2022-12-13T04:23:14.594Z,6.55
2022-12-13T04:28:22.114Z,5.45
2022-12-13T04:33:26.327Z,6.03
2022-12-13T04:38:31.435Z,6.47
2022-12-13T04:43:34.833Z,5.10
2022-12-13T04:48:38.424Z,5.88
2022-12-13T04:53:43.205Z,6.60
2022-12-13T04:58:46.602Z,6.22
2022-12-13T05:03:50.071Z,7.03
2022-12-13T05:08:55.029Z,7.30
2022-12-13T05:14:04.401Z,7.18
2022-12-13T05:19:07.832Z,7.90
2022-12-13T05:24:12.572Z,7.72
2022-12-13T05:29:15.922Z,7.70
2022-12-13T05:34:19.301Z,6.97
2022-12-13T05:39:27.824Z,7.65
2022-12-13T05:44:33.413Z,8.55
2022-12-13T05:49:39.796Z,7.55
2022-12-13T05:54:44.670Z,9.40
2022-12-13T05:59:48.046Z,8.35
2022-12-13T06:04:51.391Z,10.13
2022-12-13T06:10:10.108Z,9.50
2022-12-13T06:15:22.455Z,8.75
2022-12-13T06:20:26.673Z,9.13
2022-12-13T06:25:32.081Z,9.02
2022-12-13T06:30:35.722Z,9.45
2022-12-13T06:35:46.280Z,9.07
2022-12-13T06:40:51.834Z,8.60
2022-12-13T06:45:55.263Z,8.55
2022-12-13T06:51:01.643Z,7.65
2022-12-13T06:56:08.198Z,8.52
2022-12-13T07:01:14.884Z,8.48
2022-12-13T07:06:27.229Z,9.45
2022-12-13T07:11:33.183Z,9.75
2022-12-13T07:16:37.691Z,9.68
2022-12-13T07:21:41.088Z,10.80
2022-12-13T07:26:46.345Z,9.43
2022-12-13T07:31:49.749Z,9.98
2022-12-13T07:36:53.291Z,10.07
2022-12-13T07:41:58.566Z,9.82
2022-12-13T07:47:02.135Z,9.50
2022-12-13T07:52:05.896Z,10.85
2022-12-13T07:57:10.651Z,11.98
2022-12-13T08:02:14.844Z,10.27
2022-12-13T08:07:18.648Z,10.70
2022-12-13T08:12:23.614Z,8.80
2022-12-13T08:17:27.006Z,9.30
2022-12-13T08:22:36.064Z,8.80
2022-12-13T08:27:42.899Z,8.55
2022-12-13T08:32:46.702Z,7.22
2022-12-13T08:37:50.079Z,7.22
2022-12-13T08:42:56.538Z,7.05
2022-12-13T08:48:00.657Z,6.75
2022-12-13T08:53:04.049Z,7.57
2022-12-13T08:58:09.160Z,7.50
2022-12-13T09:03:12.519Z,8.43
2022-12-13T09:08:24.577Z,7.50
2022-12-13T09:13:32.899Z,7.00
2022-12-13T09:18:37.418Z,7.00
2022-12-13T09:23:46.021Z,6.70
2022-12-13T09:28:51.182Z,7.03
2022-12-13T09:33:54.626Z,7.20
2022-12-13T09:38:59.301Z,6.72
2022-12-13T09:44:32.275Z,7.43
2022-12-13T09:49:36.708Z,6.90
2022-12-13T09:54:48.295Z,6.43
2022-12-13T09:59:59.928Z,6.43
2022-12-13T10:05:22.679Z,7.93
2022-12-13T10:10:28.261Z,7.50
2022-12-13T10:15:36.709Z,6.47
2022-12-13T10:20:40.225Z,5.18
2022-12-13T10:25:50.992Z,5.78
2022-12-13T10:30:57.162Z,6.22
2022-12-13T10:36:07.028Z,6.43
2022-12-13T10:41:32.735Z,5.82
2022-12-13T10:46:38.624Z,5.60
2022-12-13T10:51:42.456Z,6.50
2022-12-13T10:56:49.977Z,6.38
2022-12-13T11:01:55.574Z,6.38
2022-12-13T11:07:00.791Z,6.40
2022-12-13T11:12:12.139Z,6.90
2022-12-13T11:17:21.384Z,6.47
2022-12-13T11:22:27.867Z,5.60
2022-12-13T11:27:56.532Z,6.20
2022-12-13T11:33:19.090Z,6.00
2022-12-13T11:38:32.364Z,5.80
2022-12-13T11:48:49.131Z,5.85
2022-12-13T11:53:57.734Z,5.13
2022-12-13T11:59:20.357Z,5.72
2022-12-13T12:04:37.894Z,6.82
2022-12-13T12:09:49.663Z,6.43
2022-12-13T12:14:59.189Z,5.90
2022-12-13T12:20:23.927Z,5.65
2022-12-13T12:25:37.135Z,6.45
2022-12-13T12:30:52.358Z,5.72
2022-12-13T12:36:26.776Z,5.75
2022-12-13T12:47:18.302Z,5.47
2022-12-13T12:52:30.791Z,5.57
2022-12-13T12:57:45.988Z,5.15
2022-12-13T13:03:01.695Z,6.28
2022-12-13T13:08:14.010Z,5.63
2022-12-13T13:13:45.962Z,5.60
2022-12-13T13:18:52.335Z,6.30
2022-12-13T13:24:14.964Z,6.65
2022-12-13T13:29:36.917Z,6.15
2022-12-13T13:34:42.670Z,6.22
2022-12-13T13:40:02.638Z,5.88
2022-12-13T13:45:24.431Z,6.22
2022-12-13T13:51:28.424Z,5.80
2022-12-13T13:56:54.550Z,5.30
2022-12-13T14:02:32.603Z,5.20
2022-12-13T14:08:10.140Z,4.75
2022-12-13T14:13:58.481Z,4.93
2022-12-13T14:19:43.573Z,4.88
2022-12-13T14:24:54.914Z,5.18
2022-12-13T14:29:59.520Z,5.38
2022-12-13T14:35:25.365Z,5.50
2022-12-13T14:40:32.326Z,5.50
2022-12-13T14:45:37.937Z,6.60
2022-12-13T14:50:45.623Z,7.45
2022-12-13T14:56:05.331Z,9.57
2022-12-13T15:01:29.749Z,9.82
2022-12-13T15:06:34.944Z,9.88
2022-12-13T15:11:38.424Z,8.90
2022-12-13T15:16:47.861Z,9.45
2022-12-13T15:22:02.417Z,13.32
2022-12-13T15:27:06.643Z,12.43
2022-12-13T15:32:16.326Z,10.65
2022-12-13T15:37:29.089Z,14.23
2022-12-13T15:42:36.540Z,14.45
2022-12-13T15:47:46.744Z,16.27
2022-12-13T15:53:01.695Z,13.95
